Wetterdaten: Woche 07.04.25 - 13.04.25 (KW15)
Datum Zeit Temp. I. Temp. A. Feuchte I. Feuchte A. Luftdruck Regen Wind Richtung Sonnenschein Solar Taupunkt Windchill Windböen
07.04.2025 00:00 21,7 °C -2,0 °C 46 % 80 % 1026,3 hPa 0,0 l/m² 0,5 km/h (0 Bft) W-SW 0,00 h 0 W/m² -5,0 °C -2,0 °C 0,9 km/h (0 Bft)
07.04.2025 01:00 21,7 °C -2,8 °C 46 % 83 % 1026,3 hPa 0,0 l/m² 1,4 km/h (1 Bft) W-SW 0,00 h 0 W/m² -5,3 °C -2,8 °C 2,2 km/h (1 Bft)
07.04.2025 02:00 21,7 °C -2,2 °C 46 % 83 % 1026,1 hPa 0,0 l/m² 2,3 km/h (1 Bft) W-SW 0,00 h 0 W/m² -4,7 °C -2,2 °C 3,3 km/h (1 Bft)
07.04.2025 03:00 21,8 °C -1,5 °C 46 % 83 % 1025,7 hPa 0,0 l/m² 2,6 km/h (1 Bft) W-SW 0,00 h 0 W/m² -3,9 °C -1,5 °C 3,9 km/h (1 Bft)
07.04.2025 04:00 21,9 °C -1,0 °C 46 % 84 % 1025,6 hPa 0,0 l/m² 2,2 km/h (1 Bft) W-SW 0,00 h 0 W/m² -3,3 °C -1,0 °C 3,8 km/h (1 Bft)
07.04.2025 05:00 21,8 °C -0,3 °C 46 % 83 % 1025,5 hPa 0,0 l/m² 0,7 km/h (0 Bft) W-SW 0,00 h 0 W/m² -2,9 °C -0,3 °C 1,2 km/h (1 Bft)
07.04.2025 06:00 21,8 °C 0,2 °C 46 % 81 % 1025,9 hPa 0,0 l/m² 0,4 km/h (0 Bft) W-SW 0,00 h 6 W/m² -2,6 °C 0,2 °C 1,1 km/h (1 Bft)
07.04.2025 07:00 21,9 °C 0,9 °C 46 % 82 % 1026,0 hPa 0,0 l/m² 1,6 km/h (1 Bft) W-SW 0,15 h 31 W/m² -1,8 °C 0,9 °C 2,6 km/h (1 Bft)
07.04.2025 08:00 21,8 °C 3,2 °C 46 % 75 % 1026,2 hPa 0,0 l/m² 4,1 km/h (1 Bft) W-SW 1,00 h 109 W/m² -0,8 °C 3,2 °C 6,9 km/h (2 Bft)
07.04.2025 09:00 21,9 °C 6,9 °C 45 % 57 % 1026,2 hPa 0,0 l/m² 8,8 km/h (2 Bft) W 1,00 h 310 W/m² -1,0 °C 5,0 °C 14,4 km/h (3 Bft)
07.04.2025 10:00 21,9 °C 9,2 °C 46 % 48 % 1026,3 hPa 0,0 l/m² 12,4 km/h (2 Bft) NW 1,00 h 411 W/m² -1,2 °C 5,6 °C 18,6 km/h (3 Bft)
07.04.2025 11:00 21,8 °C 10,4 °C 46 % 47 % 1026,3 hPa 0,0 l/m² 11,8 km/h (2 Bft) NW 0,98 h 454 W/m² -0,3 °C 7,1 °C 18,6 km/h (3 Bft)
07.04.2025 12:00 21,7 °C 11,8 °C 46 % 45 % 1026,1 hPa 0,0 l/m² 10,7 km/h (2 Bft) NW 1,00 h 539 W/m² 0,2 °C 9,3 °C 17,1 km/h (3 Bft)
07.04.2025 13:00 21,7 °C 12,7 °C 46 % 43 % 1025,8 hPa 0,0 l/m² 10,7 km/h (2 Bft) NW 1,02 h 555 W/m² 0,4 °C 10,4 °C 18,1 km/h (3 Bft)
07.04.2025 14:00 21,8 °C 13,3 °C 46 % 43 % 1025,4 hPa 0,0 l/m² 10,9 km/h (2 Bft) N-NW 1,00 h 477 W/m² 0,9 °C 11,0 °C 17,1 km/h (3 Bft)
07.04.2025 15:00 21,8 °C 13,2 °C 46 % 43 % 1025,2 hPa 0,0 l/m² 10,3 km/h (2 Bft) NW 1,00 h 350 W/m² 1,0 °C 11,1 °C 16,0 km/h (3 Bft)
07.04.2025 16:00 21,7 °C 12,8 °C 46 % 44 % 1024,9 hPa 0,0 l/m² 9,2 km/h (2 Bft) NW 1,00 h 191 W/m² 0,9 °C 11,1 °C 14,7 km/h (3 Bft)
07.04.2025 17:00 21,7 °C 12,6 °C 46 % 45 % 1024,9 hPa 0,0 l/m² 10,4 km/h (2 Bft) N-NW 1,00 h 180 W/m² 1,0 °C 10,4 °C 16,6 km/h (3 Bft)
07.04.2025 18:00 21,7 °C 12,6 °C 46 % 46 % 1024,9 hPa 0,0 l/m² 8,9 km/h (2 Bft) N-NW 0,98 h 131 W/m² 1,2 °C 11,1 °C 13,6 km/h (3 Bft)
07.04.2025 19:00 21,6 °C 11,0 °C 46 % 52 % 1025,2 hPa 0,0 l/m² 2,4 km/h (1 Bft) W-NW 0,00 h 24 W/m² 1,5 °C 11,0 °C 3,9 km/h (1 Bft)
07.04.2025 20:00 21,5 °C 7,4 °C 46 % 64 % 1025,6 hPa 0,0 l/m² 0,2 km/h (0 Bft) W-NW 0,00 h 0 W/m² 0,9 °C 7,4 °C 0,3 km/h (0 Bft)
07.04.2025 21:00 21,4 °C 3,8 °C 46 % 76 % 1026,0 hPa 0,0 l/m² 0,7 km/h (0 Bft) W 0,00 h 0 W/m² -0,1 °C 3,8 °C 1,1 km/h (1 Bft)
07.04.2025 22:00 21,5 °C 2,4 °C 46 % 78 % 1026,1 hPa 0,0 l/m² 0,5 km/h (0 Bft) W 0,00 h 0 W/m² -1,1 °C 2,4 °C 0,9 km/h (0 Bft)
07.04.2025 23:00 21,5 °C 1,5 °C 46 % 80 % 1026,3 hPa 0,0 l/m² 1,7 km/h (1 Bft) W 0,00 h 0 W/m² -1,6 °C 1,5 °C 2,8 km/h (1 Bft)
08.04.2025 00:00 21,5 °C 1,0 °C 46 % 82 % 1026,5 hPa 0,0 l/m² 2,7 km/h (1 Bft) W 0,00 h 0 W/m² -1,7 °C 1,0 °C 3,8 km/h (1 Bft)
08.04.2025 01:00 21,4 °C 0,2 °C 46 % 84 % 1026,7 hPa 0,0 l/m² 1,3 km/h (1 Bft) W 0,00 h 0 W/m² -2,1 °C 0,2 °C 2,0 km/h (1 Bft)
08.04.2025 02:00 21,5 °C 0,3 °C 46 % 86 % 1026,8 hPa 0,0 l/m² 1,8 km/h (1 Bft) W 0,00 h 0 W/m² -1,7 °C 0,3 °C 3,1 km/h (1 Bft)
08.04.2025 03:00 21,6 °C 0,5 °C 46 % 83 % 1027,0 hPa 0,0 l/m² 3,8 km/h (1 Bft) SW 0,00 h 0 W/m² -2,1 °C 0,5 °C 5,6 km/h (2 Bft)
08.04.2025 04:00 21,6 °C 1,0 °C 46 % 81 % 1026,9 hPa 0,0 l/m² 2,9 km/h (1 Bft) SW 0,00 h 0 W/m² -2,0 °C 1,0 °C 4,7 km/h (1 Bft)
08.04.2025 05:00 21,7 °C 1,0 °C 45 % 80 % 1027,1 hPa 0,0 l/m² 2,9 km/h (1 Bft) W-NW 0,00 h 0 W/m² -2,1 °C 1,0 °C 5,3 km/h (1 Bft)
08.04.2025 06:00 21,7 °C 1,3 °C 45 % 79 % 1027,4 hPa 0,0 l/m² 1,6 km/h (1 Bft) W-NW 0,00 h 9 W/m² -1,8 °C 1,3 °C 2,9 km/h (1 Bft)
08.04.2025 07:00 21,7 °C 1,5 °C 45 % 82 % 1027,8 hPa 0,0 l/m² 2,0 km/h (1 Bft) W-NW 0,12 h 35 W/m² -1,3 °C 1,5 °C 3,1 km/h (1 Bft)
08.04.2025 08:00 21,6 °C 3,7 °C 45 % 80 % 1028,2 hPa 0,0 l/m² 3,9 km/h (1 Bft) W-NW 1,00 h 103 W/m² 0,5 °C 3,7 °C 5,4 km/h (2 Bft)
08.04.2025 09:00 21,6 °C 8,0 °C 45 % 70 % 1028,4 hPa 0,0 l/m² 4,5 km/h (1 Bft) NW 1,00 h 244 W/m² 2,8 °C 8,0 °C 7,8 km/h (2 Bft)
08.04.2025 10:00 21,6 °C 10,2 °C 45 % 64 % 1028,7 hPa 0,0 l/m² 4,3 km/h (1 Bft) NW 1,00 h 344 W/m² 3,7 °C 10,0 °C 6,9 km/h (2 Bft)
08.04.2025 11:00 21,7 °C 11,3 °C 45 % 65 % 1028,6 hPa 0,0 l/m² 3,6 km/h (1 Bft) O-SO 1,00 h 388 W/m² 5,0 °C 11,3 °C 5,9 km/h (2 Bft)
08.04.2025 12:00 21,7 °C 12,3 °C 45 % 61 % 1028,4 hPa 0,0 l/m² 4,6 km/h (1 Bft) O-SO 1,00 h 486 W/m² 5,1 °C 12,0 °C 7,3 km/h (2 Bft)
08.04.2025 13:00 21,7 °C 12,3 °C 45 % 58 % 1028,2 hPa 0,0 l/m² 3,6 km/h (1 Bft) W-NW 1,00 h 246 W/m² 4,2 °C 12,3 °C 5,8 km/h (2 Bft)
08.04.2025 14:00 21,6 °C 12,8 °C 46 % 57 % 1027,7 hPa 0,0 l/m² 4,3 km/h (1 Bft) NW 1,00 h 282 W/m² 4,6 °C 12,6 °C 6,8 km/h (2 Bft)
08.04.2025 15:00 21,6 °C 13,0 °C 46 % 58 % 1027,2 hPa 0,0 l/m² 5,6 km/h (2 Bft) N-NO 1,00 h 236 W/m² 4,9 °C 12,7 °C 9,1 km/h (2 Bft)
08.04.2025 16:00 21,5 °C 13,0 °C 46 % 59 % 1026,4 hPa 0,0 l/m² 4,2 km/h (1 Bft) NO 1,00 h 253 W/m² 5,2 °C 12,8 °C 6,7 km/h (2 Bft)
08.04.2025 17:00 21,4 °C 12,5 °C 46 % 58 % 1025,9 hPa 0,0 l/m² 2,0 km/h (1 Bft) O-NO 1,00 h 159 W/m² 4,4 °C 12,5 °C 3,6 km/h (1 Bft)
08.04.2025 18:00 21,4 °C 11,3 °C 46 % 65 % 1025,6 hPa 0,0 l/m² 0,9 km/h (0 Bft) O-NO 0,50 h 58 W/m² 4,8 °C 11,3 °C 1,5 km/h (1 Bft)
08.04.2025 19:00 21,4 °C 10,0 °C 46 % 66 % 1025,4 hPa 0,0 l/m² 2,4 km/h (1 Bft) O 0,00 h 16 W/m² 3,9 °C 10,0 °C 3,3 km/h (1 Bft)
08.04.2025 20:00 21,4 °C 8,0 °C 46 % 75 % 1025,5 hPa 0,0 l/m² 0,0 km/h (0 Bft) O 0,00 h 0 W/m² 3,8 °C 8,0 °C 0,0 km/h (0 Bft)
08.04.2025 21:00 21,3 °C 6,5 °C 46 % 81 % 1025,5 hPa 0,0 l/m² 0,2 km/h (0 Bft) O 0,00 h 0 W/m² 3,5 °C 6,5 °C 0,2 km/h (0 Bft)
08.04.2025 22:00 21,3 °C 6,4 °C 46 % 83 % 1025,1 hPa 0,0 l/m² 0,0 km/h (0 Bft) O 0,00 h 0 W/m² 3,8 °C 6,4 °C 0,1 km/h (0 Bft)
08.04.2025 23:00 21,4 °C 6,6 °C 46 % 84 % 1024,9 hPa 0,0 l/m² 0,0 km/h (0 Bft) O 0,00 h 0 W/m² 4,1 °C 6,6 °C 0,0 km/h (0 Bft)
09.04.2025 00:00 21,4 °C 6,6 °C 46 % 84 % 1024,4 hPa 0,0 l/m² 0,0 km/h (0 Bft) O 0,00 h 0 W/m² 4,1 °C 6,6 °C 0,0 km/h (0 Bft)
09.04.2025 01:00 21,4 °C 6,4 °C 46 % 86 % 1023,8 hPa 0,0 l/m² 0,0 km/h (0 Bft) O 0,00 h 0 W/m² 4,2 °C 6,4 °C 0,0 km/h (0 Bft)
09.04.2025 02:00 21,4 °C 6,3 °C 46 % 86 % 1023,4 hPa 0,0 l/m² 0,0 km/h (0 Bft) O 0,00 h 0 W/m² 4,2 °C 6,3 °C 0,0 km/h (0 Bft)
09.04.2025 03:00 21,4 °C 6,1 °C 46 % 86 % 1023,0 hPa 0,0 l/m² 0,4 km/h (0 Bft) NW 0,00 h 0 W/m² 3,9 °C 6,1 °C 0,8 km/h (0 Bft)
09.04.2025 04:00 21,5 °C 6,0 °C 46 % 87 % 1022,8 hPa 0,0 l/m² 0,7 km/h (0 Bft) N 0,00 h 0 W/m² 3,9 °C 6,0 °C 1,0 km/h (0 Bft)
09.04.2025 05:00 21,4 °C 5,7 °C 46 % 88 % 1022,5 hPa 0,0 l/m² 0,0 km/h (0 Bft) N-NW 0,00 h 0 W/m² 3,8 °C 5,7 °C 0,0 km/h (0 Bft)
09.04.2025 06:00 21,4 °C 5,8 °C 46 % 88 % 1022,5 hPa 0,0 l/m² 0,0 km/h (0 Bft) N-NW 0,00 h 0 W/m² 3,9 °C 5,8 °C 0,0 km/h (0 Bft)
09.04.2025 07:00 21,5 °C 5,8 °C 46 % 89 % 1022,5 hPa 0,0 l/m² 0,0 km/h (0 Bft) N-NW 0,00 h 13 W/m² 4,2 °C 5,8 °C 0,0 km/h (0 Bft)
09.04.2025 08:00 21,5 °C 6,6 °C 46 % 89 % 1022,8 hPa 0,0 l/m² 0,0 km/h (0 Bft) N-NW 0,73 h 70 W/m² 4,8 °C 6,6 °C 0,0 km/h (0 Bft)
09.04.2025 09:00 21,4 °C 8,0 °C 46 % 83 % 1023,0 hPa 0,0 l/m² 0,0 km/h (0 Bft) N-NW 1,00 h 109 W/m² 5,2 °C 8,0 °C 0,0 km/h (0 Bft)
09.04.2025 10:00 21,4 °C 10,9 °C 46 % 73 % 1023,1 hPa 0,0 l/m² 2,8 km/h (1 Bft) W 1,00 h 383 W/m² 6,1 °C 10,8 °C 5,0 km/h (1 Bft)
09.04.2025 11:00 21,4 °C 13,5 °C 46 % 60 % 1022,9 hPa 0,0 l/m² 6,1 km/h (2 Bft) W-SW 1,00 h 506 W/m² 5,8 °C 13,1 °C 9,4 km/h (2 Bft)
09.04.2025 12:00 21,4 °C 14,6 °C 46 % 52 % 1022,7 hPa 0,0 l/m² 6,6 km/h (2 Bft) NW 1,00 h 360 W/m² 4,9 °C 14,0 °C 11,2 km/h (2 Bft)
09.04.2025 13:00 21,5 °C 15,8 °C 46 % 49 % 1022,4 hPa 0,0 l/m² 9,8 km/h (2 Bft) W 1,00 h 517 W/m² 5,0 °C 14,2 °C 15,4 km/h (3 Bft)
09.04.2025 14:00 21,6 °C 15,1 °C 46 % 49 % 1022,1 hPa 0,0 l/m² 11,2 km/h (2 Bft) NW 1,00 h 241 W/m² 4,6 °C 12,8 °C 16,7 km/h (3 Bft)
09.04.2025 15:00 21,6 °C 15,9 °C 46 % 49 % 1021,7 hPa 0,0 l/m² 12,3 km/h (2 Bft) NW 1,00 h 398 W/m² 5,3 °C 13,3 °C 18,8 km/h (3 Bft)
09.04.2025 16:00 21,6 °C 15,9 °C 46 % 51 % 1021,4 hPa 0,0 l/m² 12,7 km/h (3 Bft) NW 1,00 h 354 W/m² 5,7 °C 13,2 °C 19,1 km/h (3 Bft)
09.04.2025 17:00 21,6 °C 15,1 °C 46 % 51 % 1021,4 hPa 0,0 l/m² 14,1 km/h (3 Bft) NW 1,00 h 198 W/m² 5,0 °C 11,8 °C 21,4 km/h (4 Bft)
09.04.2025 18:00 21,5 °C 13,8 °C 46 % 52 % 1021,4 hPa 0,0 l/m² 10,7 km/h (2 Bft) W-NW 0,97 h 92 W/m² 4,1 °C 11,5 °C 17,5 km/h (3 Bft)
09.04.2025 19:00 21,4 °C 12,1 °C 46 % 55 % 1021,6 hPa 0,0 l/m² 10,5 km/h (2 Bft) NW 0,00 h 21 W/m² 3,3 °C 9,7 °C 16,9 km/h (3 Bft)
09.04.2025 20:00 21,4 °C 10,7 °C 46 % 59 % 1021,9 hPa 0,0 l/m² 7,4 km/h (2 Bft) W-NW 0,00 h 0 W/m² 2,9 °C 9,7 °C 12,5 km/h (2 Bft)
09.04.2025 21:00 21,3 °C 9,2 °C 46 % 69 % 1022,3 hPa 0,0 l/m² 6,3 km/h (2 Bft) W 0,00 h 0 W/m² 3,7 °C 8,6 °C 11,6 km/h (2 Bft)
09.04.2025 22:00 21,3 °C 8,5 °C 46 % 74 % 1022,9 hPa 0,0 l/m² 8,9 km/h (2 Bft) W 0,00 h 0 W/m² 4,2 °C 6,7 °C 15,6 km/h (3 Bft)
09.04.2025 23:00 21,3 °C 7,5 °C 46 % 75 % 1023,3 hPa 0,0 l/m² 9,2 km/h (2 Bft) W 0,00 h 0 W/m² 3,5 °C 5,4 °C 14,9 km/h (3 Bft)
10.04.2025 00:00 21,3 °C 6,6 °C 46 % 78 % 1023,4 hPa 0,0 l/m² 8,1 km/h (2 Bft) W 0,00 h 0 W/m² 3,1 °C 5,0 °C 12,3 km/h (2 Bft)
10.04.2025 01:00 21,3 °C 6,7 °C 46 % 78 % 1023,7 hPa 0,0 l/m² 5,0 km/h (1 Bft) W-NW 0,00 h 0 W/m² 3,1 °C 6,4 °C 9,4 km/h (2 Bft)
10.04.2025 02:00 21,3 °C 6,5 °C 46 % 79 % 1023,9 hPa 0,0 l/m² 5,4 km/h (2 Bft) W 0,00 h 0 W/m² 3,1 °C 6,3 °C 9,1 km/h (2 Bft)
10.04.2025 03:00 21,3 °C 6,3 °C 46 % 80 % 1024,1 hPa 0,0 l/m² 5,0 km/h (1 Bft) W 0,00 h 0 W/m² 3,2 °C 6,1 °C 8,3 km/h (2 Bft)
10.04.2025 04:00 21,4 °C 5,9 °C 46 % 81 % 1024,7 hPa 0,0 l/m² 4,9 km/h (1 Bft) W 0,00 h 0 W/m² 2,9 °C 5,5 °C 8,0 km/h (2 Bft)
10.04.2025 05:00 21,4 °C 4,7 °C 46 % 86 % 1025,1 hPa 0,0 l/m² 3,5 km/h (1 Bft) W-SW 0,00 h 0 W/m² 2,5 °C 4,6 °C 5,1 km/h (1 Bft)
10.04.2025 06:00 21,3 °C 5,1 °C 46 % 85 % 1025,2 hPa 0,0 l/m² 3,3 km/h (1 Bft) W-SW 0,00 h 7 W/m² 2,8 °C 5,1 °C 4,7 km/h (1 Bft)
10.04.2025 07:00 21,3 °C 5,7 °C 46 % 84 % 1025,6 hPa 0,0 l/m² 5,8 km/h (2 Bft) W 0,00 h 23 W/m² 3,3 °C 5,1 °C 8,9 km/h (2 Bft)
10.04.2025 08:00 21,4 °C 6,5 °C 46 % 82 % 1026,2 hPa 0,0 l/m² 7,3 km/h (2 Bft) W 0,45 h 54 W/m² 3,6 °C 5,4 °C 12,2 km/h (2 Bft)
10.04.2025 09:00 21,4 °C 7,1 °C 46 % 80 % 1026,4 hPa 0,0 l/m² 7,9 km/h (2 Bft) W 1,00 h 102 W/m² 3,9 °C 5,7 °C 13,9 km/h (3 Bft)
10.04.2025 10:00 21,3 °C 8,0 °C 46 % 79 % 1026,5 hPa 0,0 l/m² 7,9 km/h (2 Bft) W 1,00 h 154 W/m² 4,5 °C 6,6 °C 13,3 km/h (3 Bft)
10.04.2025 11:00 21,3 °C 8,9 °C 46 % 76 % 1026,5 hPa 0,0 l/m² 6,5 km/h (2 Bft) W 1,00 h 185 W/m² 5,0 °C 8,1 °C 10,4 km/h (2 Bft)
10.04.2025 12:00 21,3 °C 10,8 °C 46 % 71 % 1026,3 hPa 0,0 l/m² 7,1 km/h (2 Bft) W 1,00 h 386 W/m² 5,7 °C 9,8 °C 10,9 km/h (2 Bft)
10.04.2025 13:00 21,3 °C 12,6 °C 46 % 66 % 1026,1 hPa 0,0 l/m² 5,9 km/h (2 Bft) W 1,00 h 494 W/m² 6,5 °C 12,2 °C 9,4 km/h (2 Bft)
10.04.2025 14:00 21,4 °C 13,5 °C 46 % 65 % 1025,5 hPa 0,0 l/m² 3,8 km/h (1 Bft) S-SW 1,00 h 423 W/m² 6,9 °C 13,4 °C 6,6 km/h (2 Bft)
10.04.2025 15:00 21,4 °C 15,0 °C 46 % 60 % 1024,6 hPa 0,0 l/m² 6,2 km/h (2 Bft) W-NW 1,00 h 488 W/m² 7,2 °C 14,5 °C 10,2 km/h (2 Bft)
10.04.2025 16:00 21,4 °C 15,7 °C 46 % 56 % 1023,6 hPa 0,0 l/m² 6,9 km/h (2 Bft) NW 1,00 h 395 W/m² 7,0 °C 15,1 °C 11,3 km/h (2 Bft)
10.04.2025 17:00 21,4 °C 15,6 °C 46 % 57 % 1023,0 hPa 0,0 l/m² 7,2 km/h (2 Bft) W 1,00 h 226 W/m² 7,1 °C 14,8 °C 11,2 km/h (2 Bft)
10.04.2025 18:00 21,4 °C 14,5 °C 46 % 61 % 1022,6 hPa 0,0 l/m² 7,9 km/h (2 Bft) W 0,92 h 106 W/m² 7,1 °C 13,4 °C 11,7 km/h (2 Bft)
10.04.2025 19:00 21,4 °C 12,2 °C 46 % 66 % 1022,3 hPa 0,0 l/m² 7,1 km/h (2 Bft) W 0,02 h 22 W/m² 6,1 °C 11,4 °C 12,8 km/h (3 Bft)
10.04.2025 20:00 21,3 °C 9,1 °C 46 % 73 % 1022,4 hPa 0,0 l/m² 6,0 km/h (2 Bft) W 0,00 h 5 W/m² 4,6 °C 8,7 °C 10,6 km/h (2 Bft)
10.04.2025 21:00 21,3 °C 6,6 °C 46 % 80 % 1022,5 hPa 0,0 l/m² 3,8 km/h (1 Bft) W-SW 0,00 h 0 W/m² 3,4 °C 6,6 °C 5,3 km/h (1 Bft)
10.04.2025 22:00 21,3 °C 5,4 °C 46 % 82 % 1022,2 hPa 0,0 l/m² 1,4 km/h (1 Bft) W 0,00 h 0 W/m² 2,6 °C 5,4 °C 2,6 km/h (1 Bft)
10.04.2025 23:00 21,3 °C 5,5 °C 46 % 83 % 1021,6 hPa 0,0 l/m² 6,4 km/h (2 Bft) W-SW 0,00 h 0 W/m² 2,9 °C 4,4 °C 9,1 km/h (2 Bft)
11.04.2025 00:00 21,4 °C 5,3 °C 46 % 83 % 1021,1 hPa 0,0 l/m² 8,0 km/h (2 Bft) SW 0,00 h 0 W/m² 2,8 °C 4,0 °C 11,2 km/h (2 Bft)
11.04.2025 01:00 21,4 °C 5,0 °C 46 % 85 % 1020,4 hPa 0,0 l/m² 8,6 km/h (2 Bft) SW 0,00 h 0 W/m² 2,7 °C 3,1 °C 11,9 km/h (2 Bft)
11.04.2025 02:00 21,3 °C 4,5 °C 46 % 86 % 1019,7 hPa 0,0 l/m² 8,4 km/h (2 Bft) SW 0,00 h 0 W/m² 2,3 °C 2,8 °C 10,9 km/h (2 Bft)
11.04.2025 03:00 21,4 °C 3,9 °C 46 % 87 % 1018,9 hPa 0,0 l/m² 3,4 km/h (1 Bft) W-SW 0,00 h 0 W/m² 1,9 °C 3,7 °C 5,1 km/h (1 Bft)
11.04.2025 04:00 21,4 °C 3,6 °C 46 % 88 % 1018,1 hPa 0,0 l/m² 7,7 km/h (2 Bft) W-SW 0,00 h 0 W/m² 1,8 °C 2,3 °C 11,1 km/h (2 Bft)
11.04.2025 05:00 21,4 °C 3,7 °C 45 % 88 % 1018,4 hPa 0,0 l/m² 6,5 km/h (2 Bft) W 0,00 h 0 W/m² 2,0 °C 3,2 °C 10,0 km/h (2 Bft)
11.04.2025 06:00 21,3 °C 4,8 °C 45 % 89 % 1018,5 hPa 0,0 l/m² 11,3 km/h (2 Bft) W 0,00 h 6 W/m² 3,2 °C 1,1 °C 16,2 km/h (3 Bft)
11.04.2025 07:00 21,3 °C 6,0 °C 45 % 87 % 1018,6 hPa 0,0 l/m² 14,5 km/h (3 Bft) W 0,43 h 45 W/m² 4,0 °C 0,7 °C 21,9 km/h (4 Bft)
11.04.2025 08:00 21,3 °C 6,8 °C 45 % 83 % 1018,6 hPa 0,0 l/m² 15,2 km/h (3 Bft) W 1,00 h 159 W/m² 4,2 °C 1,4 °C 22,7 km/h (4 Bft)
11.04.2025 09:00 21,4 °C 8,6 °C 45 % 78 % 1018,9 hPa 0,0 l/m² 15,9 km/h (3 Bft) W-NW 1,00 h 294 W/m² 4,9 °C 3,2 °C 25,0 km/h (4 Bft)
11.04.2025 10:00 21,3 °C 10,6 °C 45 % 71 % 1018,8 hPa 0,0 l/m² 16,7 km/h (3 Bft) W 1,00 h 424 W/m² 5,6 °C 5,2 °C 26,6 km/h (4 Bft)
11.04.2025 11:00 21,3 °C 12,2 °C 45 % 67 % 1018,6 hPa 0,0 l/m² 16,2 km/h (3 Bft) W 1,00 h 486 W/m² 6,2 °C 7,5 °C 24,6 km/h (4 Bft)
11.04.2025 12:00 21,3 °C 14,0 °C 45 % 60 % 1018,1 hPa 0,0 l/m² 14,5 km/h (3 Bft) W-NW 1,00 h 431 W/m² 6,3 °C 10,3 °C 20,8 km/h (4 Bft)
11.04.2025 13:00 21,4 °C 15,2 °C 45 % 56 % 1017,6 hPa 0,0 l/m² 15,7 km/h (3 Bft) W-NW 1,00 h 349 W/m² 6,5 °C 11,3 °C 23,8 km/h (4 Bft)
11.04.2025 14:00 21,4 °C 15,3 °C 45 % 55 % 1017,1 hPa 0,0 l/m² 13,7 km/h (3 Bft) W-NW 1,00 h 180 W/m² 6,3 °C 12,1 °C 22,2 km/h (4 Bft)
11.04.2025 15:00 21,4 °C 16,1 °C 45 % 53 % 1016,7 hPa 0,0 l/m² 13,9 km/h (3 Bft) W-NW 1,00 h 230 W/m² 6,5 °C 13,0 °C 23,1 km/h (4 Bft)
11.04.2025 16:00 21,4 °C 17,3 °C 45 % 50 % 1016,3 hPa 0,0 l/m² 14,6 km/h (3 Bft) W-NW 1,00 h 309 W/m² 6,7 °C 14,1 °C 23,0 km/h (4 Bft)
11.04.2025 17:00 21,3 °C 16,9 °C 45 % 48 % 1016,3 hPa 0,0 l/m² 10,7 km/h (2 Bft) W-NW 1,00 h 137 W/m² 5,9 °C 15,0 °C 17,9 km/h (3 Bft)
11.04.2025 18:00 21,3 °C 16,3 °C 46 % 52 % 1016,6 hPa 0,0 l/m² 10,3 km/h (2 Bft) NW 0,78 h 72 W/m² 6,5 °C 14,6 °C 16,7 km/h (3 Bft)
11.04.2025 19:00 21,3 °C 15,3 °C 46 % 57 % 1016,6 hPa 0,0 l/m² 6,2 km/h (2 Bft) W 0,00 h 21 W/m² 6,7 °C 14,7 °C 10,7 km/h (2 Bft)
11.04.2025 20:00 21,3 °C 13,5 °C 46 % 66 % 1017,0 hPa 0,0 l/m² 0,4 km/h (0 Bft) W 0,00 h 0 W/m² 7,3 °C 13,5 °C 1,0 km/h (0 Bft)
11.04.2025 21:00 21,2 °C 13,4 °C 46 % 68 % 1017,0 hPa 0,0 l/m² 0,2 km/h (0 Bft) W 0,00 h 0 W/m² 7,7 °C 13,4 °C 0,5 km/h (0 Bft)
11.04.2025 22:00 21,2 °C 12,9 °C 46 % 71 % 1017,0 hPa 0,0 l/m² 0,0 km/h (0 Bft) W 0,00 h 0 W/m² 7,7 °C 12,9 °C 0,2 km/h (0 Bft)
11.04.2025 23:00 21,2 °C 11,7 °C 46 % 74 % 1016,9 hPa 0,0 l/m² 0,0 km/h (0 Bft) W 0,00 h 0 W/m² 7,2 °C 11,7 °C 0,0 km/h (0 Bft)
12.04.2025 00:00 21,2 °C 10,5 °C 46 % 78 % 1016,6 hPa 0,0 l/m² 0,2 km/h (0 Bft) W 0,00 h 0 W/m² 6,7 °C 10,5 °C 0,7 km/h (0 Bft)
12.04.2025 01:00 21,2 °C 8,4 °C 46 % 82 % 1016,5 hPa 0,0 l/m² 1,3 km/h (1 Bft) W 0,00 h 0 W/m² 5,5 °C 8,4 °C 2,4 km/h (1 Bft)
12.04.2025 02:00 21,2 °C 6,5 °C 46 % 87 % 1016,4 hPa 0,0 l/m² 0,0 km/h (0 Bft) W-SW 0,00 h 0 W/m² 4,4 °C 6,5 °C 0,3 km/h (0 Bft)
12.04.2025 03:00 21,2 °C 6,0 °C 46 % 88 % 1016,4 hPa 0,0 l/m² 0,2 km/h (0 Bft) W-NW 0,00 h 0 W/m² 4,1 °C 6,0 °C 0,6 km/h (0 Bft)
12.04.2025 04:00 21,2 °C 5,6 °C 46 % 90 % 1016,4 hPa 0,0 l/m² 0,2 km/h (0 Bft) W 0,00 h 0 W/m² 4,1 °C 5,6 °C 0,5 km/h (0 Bft)
12.04.2025 05:00 21,2 °C 4,7 °C 46 % 92 % 1016,3 hPa 0,0 l/m² 0,1 km/h (0 Bft) W 0,00 h 0 W/m² 3,5 °C 4,7 °C 0,2 km/h (0 Bft)
12.04.2025 06:00 21,2 °C 4,7 °C 46 % 92 % 1016,2 hPa 0,0 l/m² 1,3 km/h (1 Bft) W 0,00 h 8 W/m² 3,6 °C 4,7 °C 2,0 km/h (1 Bft)
12.04.2025 07:00 21,3 °C 6,6 °C 46 % 94 % 1016,5 hPa 0,0 l/m² 1,3 km/h (1 Bft) S-SW 0,00 h 31 W/m² 5,7 °C 6,6 °C 2,5 km/h (1 Bft)
12.04.2025 08:00 21,2 °C 8,9 °C 46 % 93 % 1016,8 hPa 0,0 l/m² 2,7 km/h (1 Bft) S-SW 0,48 h 55 W/m² 7,9 °C 8,9 °C 3,8 km/h (1 Bft)
12.04.2025 09:00 21,2 °C 10,1 °C 46 % 89 % 1016,9 hPa 0,0 l/m² 2,5 km/h (1 Bft) S-SW 1,00 h 141 W/m² 8,4 °C 10,1 °C 4,2 km/h (1 Bft)
12.04.2025 10:00 21,2 °C 11,9 °C 46 % 84 % 1016,5 hPa 0,0 l/m² 2,0 km/h (1 Bft) W-NW 1,00 h 336 W/m² 9,2 °C 11,9 °C 3,8 km/h (1 Bft)
12.04.2025 11:00 21,3 °C 14,2 °C 46 % 78 % 1015,8 hPa 0,0 l/m² 2,6 km/h (1 Bft) O-SO 1,00 h 504 W/m² 10,4 °C 14,2 °C 4,7 km/h (1 Bft)
12.04.2025 12:00 21,3 °C 15,7 °C 46 % 73 % 1015,0 hPa 0,0 l/m² 2,6 km/h (1 Bft) SW 1,00 h 501 W/m² 10,9 °C 15,7 °C 4,6 km/h (1 Bft)
12.04.2025 13:00 21,3 °C 17,3 °C 46 % 68 % 1014,4 hPa 0,0 l/m² 2,4 km/h (1 Bft) S-SW 1,00 h 538 W/m² 11,4 °C 17,3 °C 4,7 km/h (1 Bft)
12.04.2025 14:00 21,3 °C 18,4 °C 46 % 64 % 1013,8 hPa 0,0 l/m² 2,0 km/h (1 Bft) O-SO 1,00 h 522 W/m² 11,5 °C 18,4 °C 3,7 km/h (1 Bft)
12.04.2025 15:00 21,4 °C 19,6 °C 46 % 59 % 1012,7 hPa 0,0 l/m² 3,1 km/h (1 Bft) O 1,00 h 473 W/m² 11,4 °C 19,5 °C 5,0 km/h (1 Bft)
12.04.2025 16:00 21,4 °C 19,6 °C 44 % 59 % 1011,9 hPa 0,0 l/m² 6,6 km/h (2 Bft) O 1,00 h 380 W/m² 11,3 °C 19,0 °C 9,9 km/h (2 Bft)
12.04.2025 17:00 21,7 °C 19,1 °C 46 % 60 % 1011,1 hPa 0,0 l/m² 10,5 km/h (2 Bft) O 1,00 h 262 W/m² 11,2 °C 17,6 °C 14,6 km/h (3 Bft)
12.04.2025 18:00 21,6 °C 18,2 °C 46 % 59 % 1010,6 hPa 0,0 l/m² 9,9 km/h (2 Bft) O 0,90 h 101 W/m² 10,1 °C 16,8 °C 14,3 km/h (3 Bft)
12.04.2025 19:00 21,6 °C 15,7 °C 47 % 67 % 1010,2 hPa 0,0 l/m² 5,8 km/h (2 Bft) O-NO 0,03 h 21 W/m² 9,6 °C 15,5 °C 8,3 km/h (2 Bft)
12.04.2025 20:00 21,7 °C 12,8 °C 47 % 74 % 1009,9 hPa 0,0 l/m² 2,7 km/h (1 Bft) O-NO 0,00 h 5 W/m² 8,2 °C 12,8 °C 4,1 km/h (1 Bft)
12.04.2025 21:00 21,8 °C 9,8 °C 47 % 83 % 1009,5 hPa 0,0 l/m² 2,9 km/h (1 Bft) O 0,00 h 0 W/m² 7,1 °C 9,8 °C 3,9 km/h (1 Bft)
12.04.2025 22:00 21,7 °C 8,3 °C 47 % 87 % 1009,0 hPa 0,0 l/m² 0,9 km/h (0 Bft) O-NO 0,00 h 0 W/m² 6,3 °C 8,3 °C 1,3 km/h (1 Bft)
12.04.2025 23:00 21,6 °C 7,3 °C 47 % 89 % 1008,5 hPa 0,0 l/m² 0,7 km/h (0 Bft) O-NO 0,00 h 0 W/m² 5,5 °C 7,3 °C 1,0 km/h (0 Bft)
13.04.2025 00:00 21,6 °C 6,2 °C 47 % 90 % 1008,1 hPa 0,0 l/m² 0,5 km/h (0 Bft) W-NW 0,00 h 0 W/m² 4,7 °C 6,2 °C 1,2 km/h (1 Bft)
13.04.2025 01:00 21,6 °C 6,1 °C 47 % 92 % 1007,8 hPa 0,0 l/m² 0,0 km/h (0 Bft) W-NW 0,00 h 0 W/m² 4,9 °C 6,1 °C 0,2 km/h (0 Bft)
13.04.2025 02:00 21,6 °C 5,4 °C 47 % 93 % 1007,2 hPa 0,0 l/m² 0,0 km/h (0 Bft) W-NW 0,00 h 0 W/m² 4,3 °C 5,4 °C 0,0 km/h (0 Bft)
13.04.2025 03:00 21,6 °C 5,2 °C 47 % 94 % 1006,5 hPa 0,0 l/m² 0,0 km/h (0 Bft) W-NW 0,00 h 0 W/m² 4,2 °C 5,2 °C 0,0 km/h (0 Bft)
13.04.2025 04:00 21,6 °C 4,2 °C 47 % 94 % 1006,0 hPa 0,0 l/m² 0,0 km/h (0 Bft) W-NW 0,00 h 0 W/m² 3,2 °C 4,2 °C 0,0 km/h (0 Bft)
13.04.2025 05:00 21,6 °C 3,9 °C 47 % 94 % 1005,6 hPa 0,0 l/m² 0,0 km/h (0 Bft) W-NW 0,00 h 0 W/m² 3,0 °C 3,9 °C 0,0 km/h (0 Bft)
13.04.2025 06:00 21,6 °C 3,4 °C 47 % 94 % 1005,4 hPa 0,0 l/m² 0,3 km/h (0 Bft) W 0,00 h 11 W/m² 2,6 °C 3,4 °C 0,5 km/h (0 Bft)
13.04.2025 07:00 21,6 °C 5,6 °C 47 % 95 % 1005,4 hPa 0,0 l/m² 0,6 km/h (0 Bft) W 0,72 h 78 W/m² 4,9 °C 5,6 °C 1,1 km/h (1 Bft)
13.04.2025 08:00 21,6 °C 10,1 °C 47 % 92 % 1005,2 hPa 0,0 l/m² 1,6 km/h (1 Bft) O-NO 1,00 h 104 W/m² 8,8 °C 10,1 °C 2,9 km/h (1 Bft)
13.04.2025 09:00 21,8 °C 12,3 °C 48 % 85 % 1005,5 hPa 0,0 l/m² 0,7 km/h (0 Bft) O-NO 1,00 h 105 W/m² 9,8 °C 12,3 °C 1,9 km/h (1 Bft)
13.04.2025 10:00 21,8 °C 16,4 °C 48 % 73 % 1005,4 hPa 0,0 l/m² 8,1 km/h (2 Bft) S 1,00 h 401 W/m² 11,6 °C 15,1 °C 12,1 km/h (2 Bft)
13.04.2025 11:00 21,8 °C 18,9 °C 48 % 63 % 1005,2 hPa 0,0 l/m² 18,9 km/h (3 Bft) S-SW 0,98 h 264 W/m² 11,7 °C 15,1 °C 26,0 km/h (4 Bft)
13.04.2025 12:00 21,9 °C 20,0 °C 50 % 59 % 1005,1 hPa 0,0 l/m² 25,5 km/h (4 Bft) S-SW 1,00 h 376 W/m² 11,8 °C 15,4 °C 34,1 km/h (5 Bft)
13.04.2025 13:00 22,0 °C 20,8 °C 50 % 57 % 1005,1 hPa 0,0 l/m² 26,3 km/h (4 Bft) SW 1,00 h 490 W/m² 12,1 °C 16,3 °C 35,5 km/h (5 Bft)
13.04.2025 14:00 21,9 °C 20,4 °C 49 % 59 % 1005,5 hPa 0,0 l/m² 25,7 km/h (4 Bft) SW 1,02 h 323 W/m² 12,0 °C 15,8 °C 34,7 km/h (5 Bft)
13.04.2025 15:00 21,8 °C 20,4 °C 49 % 59 % 1005,8 hPa 0,0 l/m² 18,6 km/h (3 Bft) W-SW 1,00 h 295 W/m² 12,1 °C 17,0 °C 25,4 km/h (4 Bft)
13.04.2025 16:00 21,8 °C 20,1 °C 49 % 59 % 1005,8 hPa 0,0 l/m² 17,0 km/h (3 Bft) SW 1,00 h 177 W/m² 11,9 °C 17,0 °C 23,1 km/h (4 Bft)
13.04.2025 17:00 21,8 °C 19,3 °C 49 % 61 % 1005,9 hPa 0,0 l/m² 12,2 km/h (2 Bft) SW 1,00 h 68 W/m² 11,5 °C 17,4 °C 17,0 km/h (3 Bft)
13.04.2025 18:00 21,7 °C 18,8 °C 49 % 64 % 1006,0 hPa 0,0 l/m² 6,3 km/h (2 Bft) W-SW 0,52 h 60 W/m² 11,9 °C 18,5 °C 9,5 km/h (2 Bft)
13.04.2025 19:00 21,7 °C 17,7 °C 49 % 68 % 1006,5 hPa 0,0 l/m² 4,0 km/h (1 Bft) W-SW 0,00 h 22 W/m² 11,6 °C 17,6 °C 6,0 km/h (2 Bft)
13.04.2025 20:00 21,7 °C 15,7 °C 50 % 73 % 1007,4 hPa 0,0 l/m² 4,4 km/h (1 Bft) W-SW 0,00 h 0 W/m² 11,0 °C 15,7 °C 6,1 km/h (2 Bft)
13.04.2025 21:00 22,0 °C 14,7 °C 50 % 76 % 1008,0 hPa 0,0 l/m² 1,0 km/h (0 Bft) W-SW 0,00 h 0 W/m² 10,6 °C 14,7 °C 2,0 km/h (1 Bft)
13.04.2025 22:00 21,8 °C 13,6 °C 50 % 81 % 1008,1 hPa 0,0 l/m² 0,6 km/h (0 Bft) S-SW 0,00 h 0 W/m² 10,3 °C 13,6 °C 1,1 km/h (1 Bft)
13.04.2025 23:00 21,7 °C 12,2 °C 50 % 87 % 1008,3 hPa 0,0 l/m² 0,4 km/h (0 Bft) W-NW 0,00 h 0 W/m² 10,0 °C 12,2 °C 0,9 km/h (0 Bft)
Min-Datum _ 12.04.25 07.04.25 12.04.25 07.04.25 13.04.25 - 13.04.25 - - - 07.04.25 07.04.25 13.04.25
_ Min-Zeit 00:02 01:04 16:11 14:10 13:01 - 23:00 - - - 01:04 01:04 23:00
Minimum _ 21,1 °C -3,3 °C 44 % 40 % 1004,9 hPa - 0,0 km/h (0 Bft) - - - -6,1 °C -3,3 °C 0,0 km/h (0 Bft)
Max-Datum _ 13.04.25 13.04.25 13.04.25 13.04.25 08.04.25 13.04.25 13.04.25 - 13.04.25 13.04.25 13.04.25 12.04.25 13.04.25
_ Max-Zeit 21:26 14:00 21:05 08:01 10:56 23:00 14:02 - 12:40 14:00 13:54 15:46 14:02
Maximum _ 22,1 °C 21,8 °C 51 % 96 % 1029,1 hPa 0,0 l/m² 34,6 km/h
SW (5 Bft)
- 0,08 h 817 W/m² 13,6 °C 20,8 °C 49,9 km/h
SW (7 Bft)
Durchschnitt _ 21,5 °C 9,5 °C 46 % 73 % 1019,7 hPa #0,0 l/m² 5,5 km/h (2 Bft) W #75:42 h 135 W/m² 4,5 °C 8,6 °C 8,5 km/h (2 Bft)
© 2009 Mathias Hoßbach